Home   Weather   India   Nagercoil   Past weeks
Flag for India

Past Weather in Nagercoil, Tamil Nadu, India — Yesterday and Last 2 Weeks

Currently: 88 °F. Haze. (Weather station: Thiruvananthapuram, India). See more current weather

Past Weather in Nagercoil — Graph

°F

Nagercoil Temperature Yesterday

Maximum temperature yesterday: 91 °F (at 10:30 am)
Minimum temperature yesterday: 79 °F (at 5:00 am)
Average temperature yesterday: 85 °F

High & Low Weather Summary for the Past Weeks

 TemperatureHumidityPressure
High95 °F (Feb 26, 11:30 am)94% (Feb 18, 5:00 am)29.95 "Hg (Feb 18, 5:00 am)
Low79 °F (Feb 18, 6:30 am)41% (Feb 26, 11:30 am)29.71 "Hg (Feb 26, 3:30 pm)
Average86 °F68%29.85 "Hg
* Reported Feb 16 9:30 am — Mar 2 9:30 am, Nagercoil. Weather by CustomWeather, © 2024

Note: Actual official high and low records may vary slightly from our data, if they occured in-between our weather recording intervals... More about our weather records

Nagercoil Weather History for the Previous 24 Hours

Scroll right to see more
 ConditionsComfort  
Time TempWeatherWind HumidityBarometerVisibility
9:30 am
Sat, Mar 2
88 °FHaze.6 mph62%29.95 "Hg2 mi
9:00 am88 °FHaze.1 mph59%29.92 "Hg2 mi
8:30 am86 °FFog.1 mph62%29.92 "Hg2 mi
8:00 am84 °FFog.2 mph66%29.92 "Hg2 mi
7:30 am81 °FFog.2 mph74%29.92 "Hg2 mi
7:00 am79 °FFog.2 mph74%29.89 "Hg2 mi
6:30 am79 °FFog.1 mph74%29.89 "Hg2 mi
6:00 am79 °FFog.2 mph74%29.86 "Hg2 mi
5:30 am79 °FFog.2 mph74%29.86 "Hg2 mi
5:00 am79 °FFog.2 mph74%29.86 "Hg2 mi
4:30 am79 °FFog.2 mph74%29.83 "Hg2 mi
4:00 am79 °FFog.1 mph74%29.83 "Hg2 mi
3:30 am81 °FFog.1 mph70%29.83 "Hg2 mi
3:00 am82 °FFog.3 mph66%29.86 "Hg2 mi
2:30 am84 °FFog.5 mph66%29.86 "Hg2 mi
2:00 am84 °FFog.3 mph62%29.86 "Hg2 mi
1:30 am84 °FFog.2 mph62%29.86 "Hg2 mi
1:00 am84 °FFog.2 mph66%29.89 "Hg2 mi
12:30 am84 °FFog.3 mph66%29.89 "Hg2 mi
12:00 am84 °FFog.3 mph62%29.89 "Hg2 mi
11:30 pm
Fri, Mar 1
84 °FFog.3 mph66%29.92 "Hg2 mi
11:00 pm84 °FPartly cloudy.5 mph62%29.92 "Hg2 mi
10:30 pm84 °FPartly cloudy.7 mph62%29.92 "Hg2 mi
10:00 pm84 °FPartly cloudy.2 mph62%29.92 "Hg2 mi
9:30 pm84 °FPartly cloudy.5 mph62%29.89 "Hg2 mi
9:00 pm84 °FPartly cloudy.2 mph62%29.89 "Hg2 mi
8:30 pm84 °FPartly cloudy.No wind62%29.89 "Hg2 mi
8:00 pm86 °FPartly cloudy.1 mph59%29.86 "Hg2 mi
7:30 pm86 °FPartly cloudy.2 mph59%29.86 "Hg2 mi
7:00 pm86 °FBroken clouds.3 mph62%29.83 "Hg2 mi
6:30 pm86 °FBroken clouds.2 mph62%29.83 "Hg3 mi
6:00 pm86 °FBroken clouds.2 mph62%29.80 "Hg3 mi
5:30 pm88 °FBroken clouds.5 mph59%29.80 "Hg3 mi
5:00 pm88 °FBroken clouds.3 mph62%29.80 "Hg3 mi
4:30 pm88 °FBroken clouds.6 mph62%29.80 "Hg4 mi
4:00 pm90 °FBroken clouds.6 mph59%29.80 "Hg4 mi
3:30 pm90 °FBroken clouds.5 mph55%29.80 "Hg4 mi
3:00 pm90 °FBroken clouds.7 mph55%29.80 "Hg4 mi
2:30 pm91 °FBroken clouds.5 mph52%29.83 "Hg4 mi
2:00 pm91 °FBroken clouds.5 mph52%29.83 "Hg4 mi
1:30 pm91 °FBroken clouds.5 mph49%29.86 "Hg4 mi
1:00 pm90 °FBroken clouds.5 mph52%29.86 "Hg4 mi
12:30 pm90 °FBroken clouds.5 mph52%29.89 "Hg3 mi
12:00 pm91 °FBroken clouds.5 mph49%29.89 "Hg3 mi
11:30 am90 °FBroken clouds.3 mph49%29.89 "Hg3 mi
11:00 am90 °FBroken clouds.5 mph46%29.92 "Hg3 mi
Weather by CustomWeather, © 2024

See weather overview